Time;durP1;ratioP1;P1;durP2;ratioP2;P2;SDS_P1;SDS_P2;PMS_P1;PMS_P2;Temp;Humidity;BMP_temperature;BMP_pressure;BME280_temperature;BME280_humidity;BME280_pressure;Samples;Min_cycle;Max_cycle;Signal;HPM_P1;HPM_P2
2022/05/19 00:01:02;;;;;;;10.90;4.62;;;;;;;11.82;29.52;101687.66;1644315;85;98873;-62
2022/05/19 00:03:29;;;;;;;10.10;5.53;;;;;;;11.75;29.61;101676.66;1646010;85;25888;-62
2022/05/19 00:05:59;;;;;;;9.88;5.45;;;;;;;11.73;29.70;101681.20;1648723;85;98971;-62
2022/05/19 00:08:25;;;;;;;10.80;4.42;;;;;;;11.70;29.77;101683.98;1646675;85;25854;-62
2022/05/19 00:11:10;;;;;;;;;;;;;;;;;;;;;
2022/05/19 00:13:25;;;;;;;11.63;4.15;;;;;;;11.63;29.95;101677.92;1640402;85;99068;-64
2022/05/19 00:15:52;;;;;;;22.42;4.60;;;;;;;11.62;30.00;101677.97;1649631;85;25792;-64
2022/05/19 00:18:19;;;;;;;33.38;8.65;;;;;;;11.60;30.07;101675.80;1649956;85;98939;-62
2022/05/19 00:20:46;;;;;;;28.87;6.42;;;;;;;11.57;30.11;101670.06;1646930;85;25804;-62
2022/05/19 00:23:14;;;;;;;24.95;5.85;;;;;;;11.55;30.21;101666.55;1649658;85;28003;-64
2022/05/19 00:25:40;;;;;;;51.45;9.88;;;;;;;11.52;30.30;101665.76;1641230;85;98795;-63
2022/05/19 00:28:08;;;;;;;36.77;7.58;;;;;;;11.47;30.36;101663.22;1643579;85;25812;-63
2022/05/19 00:30:35;;;;;;;37.83;6.90;;;;;;;11.43;30.42;101666.92;1647458;85;98852;-63
2022/05/19 00:33:03;;;;;;;29.02;6.55;;;;;;;11.38;30.52;101670.20;1648410;85;25856;-63
2022/05/19 00:35:31;;;;;;;18.05;5.05;;;;;;;11.30;30.62;101665.06;1646938;85;27466;-63
2022/05/19 00:37:58;;;;;;;14.03;4.92;;;;;;;11.23;30.82;101672.01;1649066;85;98773;-63
2022/05/19 00:40:27;;;;;;;12.65;4.53;;;;;;;11.18;30.91;101671.27;1645849;85;25834;-64
2022/05/19 00:42:54;;;;;;;18.90;4.30;;;;;;;11.11;31.12;101663.86;1645564;85;99037;-63
2022/05/19 00:45:31;;;;;;;18.20;4.62;;;;;;;11.08;31.22;101663.95;1647802;85;25808;-63
2022/05/19 00:48:09;;;;;;;19.00;6.00;;;;;;;11.00;31.33;101662.83;1645222;85;99137;-63
2022/05/19 00:50:57;;;;;;;24.67;5.35;;;;;;;10.94;31.51;101668.83;1675630;84;25922;-63
2022/05/19 00:53:43;;;;;;;23.83;6.50;;;;;;;10.89;31.61;101672.10;1655662;85;25938;-62
2022/05/19 00:56:15;;;;;;;15.10;4.95;;;;;;;10.81;31.72;101659.37;1670044;83;98634;-63
2022/05/19 00:58:53;;;;;;;17.25;4.92;;;;;;;10.76;31.84;101665.32;1676179;84;25807;-64
2022/05/19 01:01:22;;;;;;;15.68;4.75;;;;;;;10.74;31.98;101659.54;1668239;84;99206;-63
2022/05/19 01:03:53;;;;;;;8.93;4.97;;;;;;;10.74;32.03;101655.52;1677061;84;25727;-63
2022/05/19 01:06:22;;;;;;;14.58;5.15;;;;;;;10.72;32.06;101652.46;1672561;83;99013;-63
2022/05/19 01:09:05;;;;;;;17.95;4.20;;;;;;;10.68;32.21;101651.67;1676578;84;26518;-63
2022/05/19 01:11:31;;;;;;;14.23;4.58;;;;;;;10.66;32.28;101650.83;1677758;84;25808;-64
2022/05/19 01:13:58;;;;;;;15.90;4.40;;;;;;;10.62;32.38;101650.49;1675515;83;99010;-62
2022/05/19 01:16:27;;;;;;;12.05;5.05;;;;;;;10.58;32.49;101655.52;1678908;84;25806;-63
2022/05/19 01:18:55;;;;;;;12.98;4.65;;;;;;;10.54;32.61;101654.30;1675816;83;98915;-62
2022/05/19 01:21:23;;;;;;;14.33;5.78;;;;;;;10.47;32.76;101645.55;1679447;84;25791;-62
2022/05/19 01:24:16;;;;;;;16.65;5.28;;;;;;;10.47;32.84;101650.03;1679976;83;99167;-62
2022/05/19 01:26:55;;;;;;;27.20;5.30;;;;;;;10.45;32.90;101645.17;1643459;84;27567;-62
2022/05/19 01:29:25;;;;;;;18.15;5.20;;;;;;;10.39;33.01;101644.45;1671761;84;25821;-63
2022/05/19 01:32:02;;;;;;;19.57;5.50;;;;;;;10.36;33.12;101641.85;1650707;84;98942;-62
2022/05/19 01:34:35;;;;;;;22.60;6.15;;;;;;;10.34;33.23;101642.35;1676768;84;25795;-63
2022/05/19 01:37:02;;;;;;;24.65;7.42;;;;;;;10.31;33.31;101637.08;1675984;84;98961;-63
2022/05/19 01:39:31;;;;;;;28.40;7.47;;;;;;;10.27;33.41;101638.53;1664702;84;27513;-63
2022/05/19 01:42:26;;;;;;;19.42;5.87;;;;;;;10.20;33.56;101630.23;1642534;85;99100;-63
2022/05/19 01:45:32;;;;;;;21.70;6.72;;;;;;;10.16;33.66;101629.41;1665320;86;25738;-63
2022/05/19 01:48:06;;;;;;;18.05;6.30;;;;;;;10.12;33.79;101629.06;1643103;87;99070;-63
2022/05/19 01:50:58;;;;;;;29.65;5.70;;;;;;;10.07;33.93;101626.50;1665491;86;25749;-63
2022/05/19 01:53:41;;;;;;;19.45;6.30;;;;;;;10.04;33.97;101632.39;1644356;87;27406;-63
2022/05/19 01:56:37;;;;;;;16.75;5.37;;;;;;;9.99;34.20;101628.48;1664723;85;98729;-63
2022/05/19 01:59:11;;;;;;;19.62;6.17;;;;;;;9.94;34.26;101628.19;1663540;85;26000;-62
2022/05/19 02:01:42;;;;;;;16.37;5.03;;;;;;;9.86;34.40;101624.36;1648067;87;98810;-65
2022/05/19 02:04:29;;;;;;;14.65;5.58;;;;;;;9.83;34.55;101620.88;1666191;86;26080;-65
2022/05/19 02:07:02;;;;;;;13.28;6.42;;;;;;;9.80;34.70;101620.50;1642493;87;98808;-64
2022/05/19 02:09:33;;;;;;;17.70;5.92;;;;;;;9.77;34.79;101617.89;1665981;86;25652;-65
2022/05/19 02:12:01;;;;;;;14.45;4.60;;;;;;;9.75;34.89;101617.05;1671342;85;98953;-63
2022/05/19 02:14:35;;;;;;;15.13;5.78;;;;;;;9.73;35.02;101613.53;1673142;85;25779;-63
2022/05/19 02:17:07;;;;;;;15.95;5.83;;;;;;;9.70;35.07;101608.25;1672571;85;25725;-63
2022/05/19 02:19:40;;;;;;;10.53;5.33;;;;;;;9.69;35.21;101605.16;1670432;85;98791;-63
2022/05/19 02:22:10;;;;;;;14.15;4.85;;;;;;;9.67;35.31;101611.00;1671609;84;25853;-63
2022/05/19 02:24:39;;;;;;;;;;;;;;;9.65;35.34;101611.50;1660630;84;98770;-63
2022/05/19 02:27:41;;;;;;;10.15;4.35;;;;;;;9.64;35.51;101611.08;1663330;84;25770;-63
2022/05/19 02:30:12;;;;;;;13.22;5.20;;;;;;;9.60;35.50;101610.27;1650845;85;98770;-63
2022/05/19 02:32:39;;;;;;;21.35;4.80;;;;;;;9.59;35.58;101612.98;1661026;84;27504;-63
2022/05/19 02:35:08;;;;;;;10.88;4.85;;;;;;;9.59;35.66;101618.34;1643182;85;25745;-63
2022/05/19 02:37:34;;;;;;;12.05;5.22;;;;;;;9.57;35.73;101612.14;1665091;84;98572;-63
2022/05/19 02:40:01;;;;;;;20.60;5.17;;;;;;;9.55;35.84;101609.95;1632999;85;27802;-63
2022/05/19 02:42:29;;;;;;;14.60;4.87;;;;;;;9.55;35.93;101613.97;1619914;86;98882;-64
2022/05/19 02:44:54;;;;;;;12.88;5.35;;;;;;;9.52;36.01;101613.59;1639443;86;27427;-63
2022/05/19 02:47:20;;;;;;;12.35;4.97;;;;;;;9.50;36.15;101606.51;1620106;87;25872;-63
2022/05/19 02:49:46;;;;;;;15.28;5.53;;;;;;;9.47;36.24;101611.94;1623176;86;98594;-63
2022/05/19 02:52:13;;;;;;;10.43;4.67;;;;;;;9.44;36.37;101616.89;1617276;86;26190;-63
2022/05/19 02:54:40;;;;;;;15.63;4.83;;;;;;;9.43;36.45;101613.34;1617566;87;98661;-63
2022/05/19 02:57:06;;;;;;;9.13;4.62;;;;;;;9.40;36.56;101600.03;1621753;87;27438;-63
2022/05/19 02:59:34;;;;;;;12.18;5.03;;;;;;;9.39;36.58;101607.64;1618929;87;25983;-63
2022/05/19 03:02:00;;;;;;;16.82;6.15;;;;;;;9.38;36.64;101598.30;1615603;87;98727;-63
2022/05/19 03:04:28;;;;;;;15.98;5.58;;;;;;;9.38;36.66;101599.64;1631329;86;25840;-63
2022/05/19 03:06:55;;;;;;;16.75;5.35;;;;;;;9.37;36.76;101601.90;1634117;86;98563;-63
2022/05/19 03:09:25;;;;;;;12.85;5.67;;;;;;;9.36;36.83;101598.34;1617771;87;27512;-63
2022/05/19 03:11:51;;;;;;;11.10;5.08;;;;;;;9.37;37.01;101596.09;1620308;86;98833;-63
2022/05/19 03:14:18;;;;;;;13.08;4.92;;;;;;;9.37;37.13;101592.08;1617084;87;26488;-63
2022/05/19 03:16:46;;;;;;;17.62;5.25;;;;;;;9.37;37.21;101597.42;1618519;87;26738;-63
2022/05/19 03:19:12;;;;;;;11.28;5.60;;;;;;;9.37;37.33;101597.89;1617024;86;98797;-63
2022/05/19 03:21:41;;;;;;;13.65;4.85;;;;;;;9.38;37.51;101598.30;1613120;87;28112;-63
2022/05/19 03:24:10;;;;;;;20.40;5.03;;;;;;;9.39;37.59;101595.59;1617552;86;98792;-63
2022/05/19 03:26:36;;;;;;;25.27;5.47;;;;;;;9.40;37.64;101595.14;1631717;86;25716;-63
2022/05/19 03:29:04;;;;;;;13.70;5.17;;;;;;;9.40;37.82;101596.02;1637829;86;25802;-63
2022/05/19 03:31:33;;;;;;;14.47;5.67;;;;;;;9.42;37.92;101596.86;1616702;87;98948;-63
2022/05/19 03:34:00;;;;;;;18.23;6.22;;;;;;;9.44;38.11;101595.03;1621424;87;28026;-63
2022/05/19 03:36:26;;;;;;;13.72;5.75;;;;;;;9.47;38.27;101590.52;1629485;86;98787;-63
2022/05/19 03:38:55;;;;;;;12.65;5.50;;;;;;;9.54;38.39;101593.48;1615871;86;25885;-63
2022/05/19 03:41:23;;;;;;;16.15;6.22;;;;;;;9.58;38.53;101586.67;1656217;84;26466;-63
2022/05/19 03:43:50;;;;;;;13.03;5.47;;;;;;;9.62;38.55;101589.70;1650909;85;98552;-63
2022/05/19 03:46:19;;;;;;;20.05;6.20;;;;;;;9.63;38.65;101597.27;1663383;84;27575;-63
2022/05/19 03:48:47;;;;;;;22.37;5.65;;;;;;;9.60;38.83;101592.87;1642686;85;98657;-63
2022/05/19 03:51:23;;;;;;;11.22;5.45;;;;;;;9.59;38.93;101590.23;1663267;84;25888;-62
2022/05/19 03:53:52;;;;;;;27.02;5.35;;;;;;;9.58;39.12;101588.47;1638216;85;99009;-63
2022/05/19 03:56:23;;;;;;;19.98;6.15;;;;;;;9.58;39.17;101592.03;1665104;84;25816;-63
2022/05/19 03:58:50;;;;;;;;;;;;;;;9.58;39.24;101593.36;1648186;85;28214;-63
2022/05/19 04:01:19;;;;;;;12.40;5.33;;;;;;;9.60;39.49;101589.31;1661406;84;84102;-63
2022/05/19 04:03:45;;;;;;;10.63;5.00;;;;;;;9.59;39.42;101591.11;1661114;84;25852;-62
2022/05/19 04:06:14;;;;;;;11.90;5.53;;;;;;;9.61;39.51;101597.30;1639774;86;98968;-62
2022/05/19 04:08:42;;;;;;;12.63;6.05;;;;;;;9.62;39.56;101596.39;1646543;85;25313;-64
2022/05/19 04:11:08;;;;;;;14.90;5.85;;;;;;;9.64;39.66;101594.56;1666059;84;27434;-63
2022/05/19 04:13:34;;;;;;;13.35;5.78;;;;;;;9.69;39.72;101597.13;1636819;85;98951;-63
2022/05/19 04:16:00;;;;;;;12.65;5.53;;;;;;;9.73;39.80;101597.47;1663026;84;26306;-63
2022/05/19 04:18:26;;;;;;;20.40;5.50;;;;;;;9.76;39.85;101598.27;1645687;85;98969;-63
2022/05/19 04:20:54;;;;;;;13.85;5.58;;;;;;;9.80;39.90;101596.39;1634593;86;25764;-63
2022/05/19 04:23:21;;;;;;;13.15;5.42;;;;;;;9.78;39.94;101592.87;1661098;84;27423;-63
2022/05/19 04:25:47;;;;;;;15.03;5.75;;;;;;;9.84;39.97;101598.08;1640331;85;98726;-63
2022/05/19 04:28:14;;;;;;;12.33;5.20;;;;;;;9.88;40.01;101603.78;1661689;84;25799;-63
2022/05/19 04:30:41;;;;;;;12.30;5.45;;;;;;;9.90;40.04;101610.44;1657662;83;98766;-63
2022/05/19 04:33:09;;;;;;;13.85;5.58;;;;;;;9.91;40.11;101606.37;1660862;84;26041;-63
2022/05/19 04:35:37;;;;;;;13.30;5.15;;;;;;;9.95;40.09;101609.86;1622684;87;27464;-62
2022/05/19 04:38:11;;;;;;;12.60;5.08;;;;;;;9.98;40.12;101607.98;1636863;86;98943;-63
2022/05/19 04:40:40;;;;;;;13.38;5.30;;;;;;;10.00;40.10;101606.15;1639787;85;25812;-63
2022/05/19 04:43:08;;;;;;;12.07;5.05;;;;;;;10.03;40.09;101611.42;1638523;86;99009;-63
2022/05/19 04:45:35;;;;;;;11.00;4.90;;;;;;;10.05;40.14;101609.59;1629937;87;25842;-62
2022/05/19 04:48:02;;;;;;;14.50;6.22;;;;;;;10.08;40.13;101608.17;1640172;86;99190;-63
2022/05/19 04:50:28;;;;;;;16.97;4.90;;;;;;;10.11;40.09;101606.33;1639760;86;25804;-63
2022/05/19 04:52:59;;;;;;;12.10;5.28;;;;;;;10.14;40.08;101602.23;1644151;86;25940;-62
2022/05/19 04:55:26;;;;;;;12.23;4.80;;;;;;;10.16;40.04;101603.07;1637194;86;98929;-63
2022/05/19 04:57:55;;;;;;;23.52;4.95;;;;;;;10.18;40.05;101605.25;1639060;86;26565;-63
2022/05/19 05:00:22;;;;;;;12.60;5.37;;;;;;;10.21;40.04;101610.56;1632036;86;99239;-65
2022/05/19 05:02:52;;;;;;;20.92;6.33;;;;;;;10.24;40.00;101615.84;1631800;86;26701;-63
2022/05/19 05:05:20;;;;;;;22.35;6.15;;;;;;;10.25;40.01;101612.23;1641866;86;25821;-63
2022/05/19 05:07:46;;;;;;;15.23;5.47;;;;;;;10.29;40.00;101606.76;1633106;87;99371;-62
2022/05/19 05:10:13;;;;;;;21.05;5.80;;;;;;;10.33;40.03;101605.75;1643112;86;25862;-63
2022/05/19 05:12:42;;;;;;;18.02;5.67;;;;;;;10.27;40.00;101575.56;1640241;86;99338;-63
2022/05/19 05:15:11;;;;;;;14.40;6.10;;;;;;;10.44;40.04;101600.53;1640374;86;25639;-63
2022/05/19 05:17:37;;;;;;;11.95;5.17;;;;;;;10.49;40.02;101600.82;1638279;86;26215;-62
2022/05/19 05:20:07;;;;;;;9.15;4.95;;;;;;;10.54;40.00;101596.67;1633677;86;99281;-63
2022/05/19 05:22:36;;;;;;;20.37;5.53;;;;;;;10.59;40.02;101599.64;1633553;86;25823;-63
2022/05/19 05:25:05;;;;;;;19.75;6.05;;;;;;;10.65;40.06;101597.25;1628784;86;98931;-63
2022/05/19 05:27:31;;;;;;;11.65;4.95;;;;;;;10.70;40.13;101592.17;1633434;86;25761;-63
2022/05/19 05:29:59;;;;;;;11.00;4.90;;;;;;;10.79;40.15;101596.85;1636594;86;99020;-64
2022/05/19 05:32:26;;;;;;;16.40;4.90;;;;;;;10.86;40.15;101599.77;1630233;86;25605;-62
2022/05/19 05:34:52;;;;;;;16.62;4.75;;;;;;;10.93;40.16;101598.67;1634285;86;25863;-63
2022/05/19 05:37:19;;;;;;;11.50;4.30;;;;;;;11.02;40.17;101605.98;1635722;86;98952;-63
2022/05/19 05:39:44;;;;;;;15.83;5.30;;;;;;;11.11;40.15;101602.14;1634231;85;25859;-63
2022/05/19 05:42:12;;;;;;;12.15;5.20;;;;;;;11.20;40.16;101607.23;1648550;85;99003;-62
2022/05/19 05:44:38;;;;;;;11.60;5.00;;;;;;;11.30;40.18;101595.75;1648618;85;25994;-63
2022/05/19 05:47:06;;;;;;;22.00;5.45;;;;;;;11.39;40.16;101600.37;1644949;85;25974;-62
2022/05/19 05:49:34;;;;;;;18.70;4.78;;;;;;;11.50;40.12;101601.83;1660257;84;99520;-62
2022/05/19 05:52:05;;;;;;;16.48;5.75;;;;;;;11.60;40.10;101608.67;1659602;83;25961;-63
2022/05/19 05:54:32;;;;;;;16.77;5.05;;;;;;;11.71;40.12;101605.17;1646904;85;99048;-63
2022/05/19 05:57:00;;;;;;;10.98;4.72;;;;;;;11.81;40.04;101602.63;1645673;85;25819;-63
2022/05/19 05:59:26;;;;;;;18.55;4.97;;;;;;;11.88;40.03;101598.80;1646578;85;26352;-63
2022/05/19 06:01:55;;;;;;;15.03;4.67;;;;;;;12.03;40.05;101605.47;1644800;85;98904;-63
2022/05/19 06:04:22;;;;;;;12.75;3.72;;;;;;;12.14;40.00;101601.08;1644650;85;25724;-62
2022/05/19 06:06:48;;;;;;;21.87;5.37;;;;;;;12.24;39.99;101600.70;1645292;85;98839;-62
2022/05/19 06:09:16;;;;;;;23.90;4.92;;;;;;;12.31;39.96;101593.30;1646461;85;25811;-62
2022/05/19 06:11:44;;;;;;;12.65;4.40;;;;;;;12.42;39.96;101595.61;1646708;85;26115;-62
2022/05/19 06:14:12;;;;;;;13.93;5.37;;;;;;;12.54;39.95;101594.70;1644606;85;98780;-63
2022/05/19 06:16:40;;;;;;;18.60;4.05;;;;;;;12.67;39.97;101591.97;1642378;85;25905;-63
2022/05/19 06:19:08;;;;;;;17.15;4.80;;;;;;;12.83;39.92;101595.44;1645563;85;98964;-62
2022/05/19 06:21:36;;;;;;;25.45;5.62;;;;;;;12.94;39.89;101591.88;1644696;85;25883;-62
2022/05/19 06:24:08;;;;;;;18.15;4.25;;;;;;;13.01;39.83;101594.23;1657360;84;99225;-64
2022/05/19 06:26:35;;;;;;;19.05;5.47;;;;;;;13.09;39.87;101588.56;1658477;84;28228;-63
2022/05/19 06:29:01;;;;;;;10.85;4.17;;;;;;;13.23;39.85;101594.78;1662141;84;26348;-64
2022/05/19 06:31:31;;;;;;;21.27;5.62;;;;;;;13.36;39.78;101593.84;1647046;85;98918;-61
2022/05/19 06:33:58;;;;;;;18.48;5.03;;;;;;;13.45;39.79;101598.86;1661839;84;25835;-65
2022/05/19 06:36:25;;;;;;;19.65;6.25;;;;;;;13.55;39.77;101602.94;1636964;85;99515;-62
2022/05/19 06:38:51;;;;;;;14.63;4.92;;;;;;;13.64;39.72;101601.22;1662509;84;26520;-68
2022/05/19 06:44:02;;;;;;;16.95;5.37;;;;;;;13.83;39.68;101600.86;1638804;85;99485;-61
2022/05/19 06:46:28;;;;;;;14.07;5.40;;;;;;;13.95;39.65;101604.87;1636486;86;26109;-68
2022/05/19 06:48:54;;;;;;;23.02;5.20;;;;;;;14.10;39.65;101603.34;1636347;85;98832;-67
2022/05/19 06:51:19;;;;;;;18.42;5.03;;;;;;;14.23;39.60;101594.66;1657718;84;27522;-70
2022/05/19 06:53:45;;;;;;;18.62;4.87;;;;;;;14.34;39.55;101589.27;1637401;85;25865;-67
2022/05/19 06:56:14;;;;;;;20.40;5.30;;;;;;;14.48;39.52;101587.75;1639693;85;98675;-66
2022/05/19 06:58:41;;;;;;;29.77;5.53;;;;;;;14.58;39.46;101589.09;1660418;84;25922;-66
2022/05/19 07:01:09;;;;;;;11.48;4.83;;;;;;;14.68;39.43;101590.90;1657899;83;99316;-71
2022/05/19 07:03:36;;;;;;;20.45;5.12;;;;;;;14.79;39.41;101583.66;1658313;83;27400;-66
2022/05/19 07:06:05;;;;;;;21.55;5.08;;;;;;;14.92;39.39;101580.33;1655313;84;98993;-67
2022/05/19 07:08:31;;;;;;;22.15;4.65;;;;;;;15.05;39.29;101580.63;1643152;85;26363;-67
2022/05/19 07:10:58;;;;;;;26.75;5.17;;;;;;;15.15;39.24;101583.30;1655605;83;26474;-67
2022/05/19 07:13:24;;;;;;;19.25;5.10;;;;;;;15.29;39.22;101583.12;1660761;84;98952;-67
2022/05/19 07:15:50;;;;;;;15.20;4.50;;;;;;;15.41;39.15;101582.05;1656975;83;27551;-67
2022/05/19 07:18:16;;;;;;;24.92;5.22;;;;;;;15.56;39.11;101573.67;1653648;84;98990;-67
2022/05/19 07:20:50;;;;;;;17.30;4.12;;;;;;;15.68;39.04;101577.12;1664196;84;25968;-67
2022/05/19 07:23:21;;;;;;;21.30;4.70;;;;;;;15.81;39.01;101574.67;1655848;84;25906;-73
2022/05/19 07:25:51;;;;;;;13.75;4.05;;;;;;;15.89;38.99;101576.52;1652898;84;99404;-71
2022/05/19 07:28:23;;;;;;;17.10;4.40;;;;;;;15.95;38.87;101557.76;1657813;84;27329;-71
2022/05/19 07:30:50;;;;;;;23.77;4.53;;;;;;;15.98;38.82;101538.20;1638551;85;98966;-67
2022/05/19 07:33:19;;;;;;;23.15;4.47;;;;;;;16.25;38.78;101575.11;1658811;84;25777;-70
2022/05/19 07:35:46;;;;;;;17.77;4.62;;;;;;;16.35;38.67;101569.61;1635196;85;27728;-70
2022/05/19 07:38:14;;;;;;;17.15;3.92;;;;;;;16.41;38.62;101573.83;1661995;84;98655;-67
2022/05/19 07:40:44;;;;;;;24.18;4.25;;;;;;;16.50;38.61;101570.16;1657150;84;27498;-66
2022/05/19 07:45:58;;;;;;;18.70;4.28;;;;;;;16.71;38.47;101563.22;1670493;84;26017;-67
2022/05/19 07:48:26;;;;;;;12.20;5.17;;;;;;;16.80;38.44;101567.66;1664838;84;98956;-65
2022/05/19 07:50:53;;;;;;;11.53;3.58;;;;;;;16.94;38.41;101557.42;1667060;84;26246;-66
2022/05/19 07:53:22;;;;;;;13.20;4.55;;;;;;;17.08;38.35;101553.47;1665448;84;28115;-66
2022/05/19 07:55:47;;;;;;;11.05;3.90;;;;;;;17.18;38.28;101555.18;1673621;83;99261;-67
2022/05/19 07:58:19;;;;;;;17.27;3.87;;;;;;;17.25;38.26;101566.06;1665221;83;25944;-66
2022/05/19 08:00:51;;;;;;;19.65;3.40;;;;;;;17.39;38.25;101562.58;1665971;84;99217;-67
2022/05/19 08:03:16;;;;;;;23.70;6.70;;;;;;;17.50;38.17;101560.13;1628445;86;25771;-67
2022/05/19 08:05:44;;;;;;;22.80;4.90;;;;;;;17.59;38.18;101551.45;1653586;85;27690;-67
2022/05/19 08:08:10;;;;;;;15.30;3.83;;;;;;;17.75;38.18;101557.77;1660471;84;98683;-67
2022/05/19 08:10:36;;;;;;;12.90;3.40;;;;;;;17.91;38.09;101552.80;1637892;86;26337;-66
2022/05/19 08:15:48;;;;;;;16.27;3.20;;;;;;;18.12;37.95;101552.86;1646037;85;25821;-68
2022/05/19 08:18:22;;;;;;;11.53;2.90;;;;;;;18.22;37.89;101551.31;1665788;84;99116;-67
2022/05/19 08:20:58;;;;;;;19.23;3.98;;;;;;;18.32;37.85;101547.06;1666055;84;26224;-65
2022/05/19 08:23:31;;;;;;;16.97;4.15;;;;;;;18.42;37.80;101538.75;1633098;86;25900;-66
2022/05/19 08:25:58;;;;;;;14.83;3.20;;;;;;;18.53;37.75;101539.92;1631047;85;99041;-65
2022/05/19 08:28:29;;;;;;;5.50;3.40;;;;;;;18.57;37.73;101527.90;1667707;84;26614;-66
2022/05/19 08:30:55;;;;;;;9.90;3.25;;;;;;;18.78;37.69;101539.67;1664665;83;99338;-66
2022/05/19 08:33:23;;;;;;;8.15;2.58;;;;;;;18.94;37.60;101529.19;1664308;83;26315;-66
2022/05/19 08:35:50;;;;;;;7.62;2.87;;;;;;;19.05;37.51;101528.02;1668231;84;25851;-65
2022/05/19 08:38:18;;;;;;;8.33;2.83;;;;;;;19.13;37.27;101520.23;1665794;84;98496;-65
2022/05/19 08:40:52;;;;;;;10.93;2.75;;;;;;;19.30;37.35;101525.44;1639212;85;25758;-66
2022/05/19 08:43:23;;;;;;;8.30;2.60;;;;;;;19.39;37.19;101519.39;1643706;85;98893;-68
2022/05/19 08:45:55;;;;;;;13.88;3.50;;;;;;;19.51;37.14;101518.20;1646381;85;25827;-68
2022/05/19 08:48:28;;;;;;;8.60;2.85;;;;;;;19.59;37.01;101514.51;1644859;85;99096;-68
2022/05/19 08:50:58;;;;;;;7.78;2.55;;;;;;;19.65;37.00;101508.17;1644691;85;26217;-69
2022/05/19 08:53:32;;;;;;;13.22;3.15;;;;;;;19.77;36.97;101501.90;1640694;85;26081;-69
2022/05/19 08:56:07;;;;;;;16.15;7.28;;;;;;;19.90;36.91;101498.34;1644555;85;98948;-69
2022/05/19 08:59:05;;;;;;;29.02;8.88;;;;;;;20.13;36.90;101500.34;1640635;85;26021;-68
2022/05/19 09:02:08;;;;;;;11.30;3.40;;;;;;;20.34;36.82;101498.83;1646423;85;98850;-70
2022/05/19 09:04:57;;;;;;;13.08;2.83;;;;;;;20.49;36.70;101490.59;1646420;85;26098;-70
2022/05/19 09:10:40;;;;;;;15.15;2.90;;;;;;;20.67;36.67;101475.64;1640918;85;27502;-70
2022/05/19 09:13:51;;;;;;;5.95;2.83;;;;;;;20.84;36.61;101486.16;1656569;84;98870;-70
2022/05/19 09:16:35;;;;;;;11.33;3.00;;;;;;;20.92;36.54;101485.11;1638823;85;26070;-71
2022/05/19 09:19:19;;;;;;;15.65;2.83;;;;;;;20.95;36.50;101474.47;1639320;85;98924;-69
2022/05/19 09:21:48;;;;;;;15.90;3.08;;;;;;;20.99;36.52;101475.50;1655601;84;25819;-70
2022/05/19 09:24:14;;;;;;;12.70;2.83;;;;;;;21.19;36.51;101475.88;1643828;85;99014;-71
2022/05/19 09:26:54;;;;;;;14.43;3.05;;;;;;;21.33;36.43;101474.37;1654051;84;25751;-70
2022/05/19 09:29:37;;;;;;;12.03;3.45;;;;;;;21.44;36.37;101468.11;1658195;84;25327;-70
2022/05/19 09:32:20;;;;;;;8.43;3.00;;;;;;;21.52;36.35;101473.36;1653276;83;98921;-69
2022/05/19 09:34:50;;;;;;;9.08;2.90;;;;;;;21.63;36.34;101463.87;1645176;85;25817;-71
2022/05/19 09:37:43;;;;;;;10.07;3.37;;;;;;;21.73;36.32;101458.57;1645170;85;98565;-70
2022/05/19 09:40:26;;;;;;;5.95;2.83;;;;;;;21.80;36.27;101458.97;1637959;85;25831;-70
2022/05/19 09:43:16;;;;;;;7.30;2.92;;;;;;;21.83;36.16;101455.51;1653168;84;98824;-70
2022/05/19 09:45:50;;;;;;;8.97;2.83;;;;;;;21.90;36.11;101454.53;1658446;84;26462;-69
2022/05/19 09:48:28;;;;;;;10.45;3.05;;;;;;;21.97;35.93;101459.40;1639776;85;98946;-66
2022/05/19 09:51:06;;;;;;;4.30;2.33;;;;;;;21.97;35.80;101449.84;1658805;83;27626;-66
2022/05/19 09:53:42;;;;;;;7.92;2.42;;;;;;;21.95;35.63;101442.77;1643806;85;26103;-65
2022/05/19 09:56:15;;;;;;;16.07;2.40;;;;;;;22.02;35.61;101441.33;1642767;85;99221;-67
2022/05/19 09:58:48;;;;;;;8.90;2.17;;;;;;;22.14;35.51;101437.63;1641911;85;25827;-66
2022/05/19 10:01:32;;;;;;;5.35;2.33;;;;;;;22.29;35.17;101428.70;1642027;85;98762;-70
2022/05/19 10:04:03;;;;;;;6.87;2.08;;;;;;;22.32;34.80;101422.50;1661954;84;29153;-70
2022/05/19 10:06:54;;;;;;;11.88;2.22;;;;;;;22.34;34.64;101423.75;1617734;85;98991;-67
2022/05/19 10:09:31;;;;;;;5.33;2.55;;;;;;;22.41;34.39;101422.75;1656801;84;25740;-68
2022/05/19 10:12:08;;;;;;;8.43;2.33;;;;;;;22.47;34.20;101409.47;1636419;85;98861;-68
2022/05/19 10:14:36;;;;;;;8.20;2.52;;;;;;;22.57;34.07;101413.19;1612414;88;25738;-68
2022/05/19 10:17:40;;;;;;;8.25;2.08;;;;;;;22.72;33.95;101408.83;1612348;88;28332;-66
2022/05/19 10:20:19;;;;;;;4.53;2.10;;;;;;;22.88;33.86;101410.20;1627000;85;98675;-66
2022/05/19 10:23:14;;;;;;;3.55;2.00;;;;;;;23.06;33.68;101402.84;1660752;84;25922;-67
2022/05/19 10:26:00;;;;;;;8.28;2.08;;;;;;;23.25;33.45;101403.02;1611519;87;98785;-67
2022/05/19 10:32:12;;;;;;;8.20;2.35;;;;;;;23.36;33.06;101381.09;1692286;83;98665;-65
2022/05/19 10:35:09;;;;;;;7.10;2.00;;;;;;;23.43;32.70;101390.98;1693678;83;26024;-68
2022/05/19 10:38:19;;;;;;;16.35;2.60;;;;;;;23.56;32.56;101382.13;1691539;83;98673;-66
2022/05/19 10:41:08;;;;;;;11.90;2.33;;;;;;;23.77;32.35;101381.63;1654928;84;25893;-67
2022/05/19 10:43:59;;;;;;;13.13;2.02;;;;;;;24.02;32.04;101372.13;1631316;84;98971;-67
2022/05/19 10:46:51;;;;;;;10.63;2.47;;;;;;;24.16;31.88;101367.67;1634707;86;27572;-67
2022/05/19 10:49:53;;;;;;;11.25;2.45;;;;;;;24.25;31.76;101365.48;1602792;87;98819;-66
2022/05/19 10:52:34;;;;;;;7.72;1.92;;;;;;;24.38;31.73;101363.04;1593151;87;25996;-69
2022/05/19 10:55:22;;;;;;;;;;;;;;;24.51;31.50;101357.69;1636590;86;98769;-67
2022/05/19 10:58:12;;;;;;;12.70;2.30;;;;;;;24.63;31.40;101356.20;1633940;86;26294;-66
2022/05/19 11:00:56;;;;;;;11.60;2.47;;;;;;;24.72;31.08;101346.64;1633649;86;98215;-67
2022/05/19 11:03:51;;;;;;;6.87;2.42;;;;;;;24.85;31.19;101347.23;1606541;87;26257;-67
2022/05/19 11:06:43;;;;;;;6.67;2.98;;;;;;;25.02;31.00;101342.10;1631082;86;98956;-67
2022/05/19 11:09:20;;;;;;;4.58;2.15;;;;;;;25.20;30.91;101343.13;1631466;85;26046;-67
2022/05/19 11:12:01;;;;;;;5.33;1.90;;;;;;;25.18;30.53;101330.92;1638021;86;25808;-67
2022/05/19 11:14:47;;;;;;;14.85;2.15;;;;;;;25.27;30.49;101333.30;1637047;84;98533;-66
2022/05/19 11:17:24;;;;;;;3.17;1.80;;;;;;;25.47;30.31;101335.53;1636705;86;26760;-65
2022/05/19 11:20:01;;;;;;;4.70;1.90;;;;;;;25.64;30.08;101322.94;1633238;86;98618;-65
2022/05/19 11:22:32;;;;;;;8.08;2.27;;;;;;;25.79;29.88;101318.23;1635252;86;26674;-67
2022/05/19 11:28:07;;;;;;;4.00;2.08;;;;;;;26.04;29.44;101311.70;1635798;86;27516;-65
2022/05/19 11:30:41;;;;;;;6.78;1.98;;;;;;;26.15;29.16;101312.88;1631669;86;98850;-65
2022/05/19 11:33:13;;;;;;;7.75;2.00;;;;;;;26.20;29.20;101314.16;1635876;86;26017;-64
2022/05/19 11:35:43;;;;;;;7.97;1.90;;;;;;;26.26;29.09;101302.20;1604919;87;26045;-66
2022/05/19 11:38:30;;;;;;;;;;;;;;;26.36;29.03;101308.05;1626834;86;99081;-65
2022/05/19 11:41:20;;;;;;;9.18;2.30;;;;;;;26.39;28.80;101310.99;1629989;86;27517;-69
2022/05/19 11:44:18;;;;;;;8.28;2.27;;;;;;;26.47;28.79;101312.47;1639195;85;99245;-68
2022/05/19 11:46:52;;;;;;;12.13;2.08;;;;;;;26.65;28.75;101300.14;1649579;84;25772;-65
2022/05/19 11:55:45;;;;;;;15.15;2.50;;;;;;;27.17;28.43;101291.59;1643156;85;98730;-66
2022/05/19 11:58:21;;;;;;;2.90;2.65;;;;;;;27.29;27.72;101291.70;1661787;84;25729;-65
2022/05/19 12:01:00;;;;;;;6.85;2.77;;;;;;;27.30;27.98;101289.30;1657907;84;98847;-67
2022/05/19 12:03:56;;;;;;;11.63;2.52;;;;;;;27.38;28.04;101291.25;1631341;85;25733;-72
2022/05/19 12:06:34;;;;;;;4.25;2.60;;;;;;;27.43;27.82;101277.87;1661450;84;99151;-70
2022/05/19 12:09:07;;;;;;;7.95;2.25;;;;;;;27.58;27.92;101277.64;1638688;85;27602;-70
2022/05/19 12:11:45;;;;;;;16.77;3.40;;;;;;;27.78;27.83;101287.96;1656928;84;27188;-71